createdAt,value
2019-03-09T00:02:46.546Z,100178.03
2019-03-09T00:05:48.583Z,100176.16
2019-03-09T00:08:50.545Z,100182.52
2019-03-09T00:11:52.447Z,100180.80
2019-03-09T00:14:55.243Z,100185.66
2019-03-09T00:17:57.156Z,100183.34
2019-03-09T00:20:59.004Z,100183.50
2019-03-09T00:24:17.801Z,100189.73
2019-03-09T00:27:29.443Z,100180.41
2019-03-09T00:30:39.470Z,100177.31
2019-03-09T00:33:41.352Z,100175.56
2019-03-09T00:36:43.314Z,100177.20
2019-03-09T00:39:45.508Z,100175.03
2019-03-09T00:42:47.479Z,100173.43
2019-03-09T00:45:49.400Z,100185.87
2019-03-09T00:48:52.906Z,100178.19
2019-03-09T00:51:54.855Z,100178.99
2019-03-09T00:54:56.729Z,100172.36
2019-03-09T00:57:58.685Z,100165.16
2019-03-09T01:01:00.581Z,100165.65
2019-03-09T01:04:02.739Z,100149.20
2019-03-09T01:07:04.715Z,100155.73
2019-03-09T01:10:12.378Z,100151.64
2019-03-09T01:13:14.300Z,100149.09
2019-03-09T01:16:16.220Z,100151.26
2019-03-09T01:19:18.136Z,100140.43
2019-03-09T01:22:20.056Z,100135.47
2019-03-09T01:25:21.908Z,100135.67
2019-03-09T01:28:23.800Z,100135.56
2019-03-09T01:31:25.765Z,100123.26
2019-03-09T01:34:27.687Z,100124.83
2019-03-09T01:37:29.591Z,100125.59
2019-03-09T01:40:31.542Z,100117.27
2019-03-09T01:43:33.441Z,100112.50
2019-03-09T01:46:35.336Z,100101.22
2019-03-09T01:49:37.254Z,100095.41
2019-03-09T01:52:39.719Z,100095.72
2019-03-09T01:55:41.578Z,100084.30
2019-03-09T01:58:43.489Z,100086.73
2019-03-09T02:01:45.413Z,100094.95
2019-03-09T02:04:47.387Z,100092.61
2019-03-09T02:07:49.333Z,100097.96
2019-03-09T02:10:51.295Z,100096.48
2019-03-09T02:13:53.173Z,100080.33
2019-03-09T02:16:55.129Z,100082.48
2019-03-09T02:19:57.014Z,100089.34
2019-03-09T02:22:58.972Z,100084.89
2019-03-09T02:26:00.905Z,100077.80
2019-03-09T02:29:03.091Z,100063.06
2019-03-09T02:32:05.024Z,100076.16
2019-03-09T02:35:10.579Z,100070.41
2019-03-09T02:38:17.152Z,100071.00
2019-03-09T02:41:19.059Z,100061.70
2019-03-09T02:44:20.968Z,100066.16
2019-03-09T02:47:22.882Z,100058.88
2019-03-09T02:50:24.788Z,100049.47
2019-03-09T02:53:26.636Z,100040.56
2019-03-09T02:56:28.579Z,100034.69
2019-03-09T02:59:31.569Z,100031.20
2019-03-09T03:02:35.292Z,100025.00
2019-03-09T03:05:37.206Z,100019.89
2019-03-09T03:08:39.260Z,100013.24
2019-03-09T03:11:41.140Z,100009.05
2019-03-09T03:14:44.502Z,100010.84
2019-03-09T03:17:46.372Z,100011.55
2019-03-09T03:20:48.257Z,100002.99
2019-03-09T03:23:50.195Z,100000.69
2019-03-09T03:26:52.097Z,99997.34
2019-03-09T03:29:54.038Z,99990.67
2019-03-09T03:32:57.709Z,99996.80
2019-03-09T03:35:59.703Z,99993.36
2019-03-09T03:39:05.436Z,99996.13
2019-03-09T03:42:07.568Z,99993.13
2019-03-09T03:45:13.905Z,99986.05
2019-03-09T03:48:15.791Z,99974.37
2019-03-09T03:51:17.696Z,99959.95
2019-03-09T03:54:19.628Z,99958.29
2019-03-09T03:57:21.537Z,99965.33
2019-03-09T04:00:23.483Z,99967.97
2019-03-09T04:03:27.401Z,99962.20
2019-03-09T04:06:29.951Z,99962.73
2019-03-09T04:09:32.792Z,99955.34
2019-03-09T04:12:34.838Z,99941.22
2019-03-09T04:15:36.786Z,99939.94
2019-03-09T04:18:38.701Z,99927.67
2019-03-09T04:21:40.621Z,99923.08
2019-03-09T04:24:42.507Z,99916.27
2019-03-09T04:27:44.431Z,99899.17
2019-03-09T04:30:46.288Z,99907.44
2019-03-09T04:33:48.310Z,99903.42
2019-03-09T04:36:56.541Z,99909.19
2019-03-09T04:39:58.570Z,99905.17
2019-03-09T04:43:00.450Z,99902.17
2019-03-09T04:46:02.523Z,99894.54
2019-03-09T04:49:04.451Z,99896.96
2019-03-09T04:52:06.333Z,99892.02
2019-03-09T04:55:08.782Z,99877.30
2019-03-09T04:58:10.694Z,99876.95
2019-03-09T05:01:13.003Z,99873.37
2019-03-09T05:04:28.298Z,99873.37
2019-03-09T05:07:30.254Z,99870.95
2019-03-09T05:10:44.852Z,99870.09
2019-03-09T05:13:46.919Z,99862.77
2019-03-09T05:16:48.778Z,99863.28
2019-03-09T05:19:50.791Z,99864.68
2019-03-09T05:22:52.723Z,99861.17
2019-03-09T05:25:54.686Z,99858.52
2019-03-09T05:28:56.589Z,99844.92
2019-03-09T05:31:58.556Z,99849.28
2019-03-09T05:35:00.565Z,99839.74
2019-03-09T05:38:03.203Z,99833.81
2019-03-09T05:41:05.119Z,99831.16
2019-03-09T05:44:07.055Z,99829.38
2019-03-09T05:47:09.002Z,99820.38
2019-03-09T05:50:10.951Z,99806.80
2019-03-09T05:53:15.139Z,99797.58
2019-03-09T05:56:17.094Z,99788.88
2019-03-09T05:59:18.988Z,99792.19
2019-03-09T06:02:20.911Z,99789.19
2019-03-09T06:05:30.108Z,99785.09
2019-03-09T06:08:32.181Z,99777.51
2019-03-09T06:11:34.095Z,99788.06
2019-03-09T06:14:36.019Z,99773.69
2019-03-09T06:17:37.949Z,99774.02
2019-03-09T06:20:39.827Z,99759.84
2019-03-09T06:23:41.770Z,99757.72
2019-03-09T06:26:43.681Z,99750.97
2019-03-09T06:29:45.656Z,99748.33
2019-03-09T06:33:22.320Z,99742.21
2019-03-09T06:36:34.076Z,99732.76
2019-03-09T06:39:35.968Z,99729.81
2019-03-09T06:42:44.116Z,99718.95
2019-03-09T06:45:46.004Z,99723.02
2019-03-09T06:48:47.900Z,99728.73
2019-03-09T06:51:49.828Z,99731.98
2019-03-09T06:54:51.751Z,99722.47
2019-03-09T06:57:53.658Z,99720.88
2019-03-09T07:00:57.203Z,99715.94
2019-03-09T07:03:59.139Z,99706.00
2019-03-09T07:07:01.153Z,99700.76
2019-03-09T07:10:04.658Z,99695.48
2019-03-09T07:13:07.174Z,99693.93
2019-03-09T07:16:11.515Z,99688.39
2019-03-09T07:19:13.449Z,99682.54
2019-03-09T07:22:15.354Z,99686.72
2019-03-09T07:25:17.299Z,99675.02
2019-03-09T07:28:19.204Z,99673.52
2019-03-09T07:31:21.456Z,99670.21
2019-03-09T07:34:25.416Z,99670.65
2019-03-09T07:37:27.524Z,99661.73
2019-03-09T07:40:29.474Z,99652.53
2019-03-09T07:43:31.465Z,99649.43
2019-03-09T07:46:33.387Z,99644.48
2019-03-09T07:49:35.262Z,99640.61
2019-03-09T07:52:37.101Z,99628.04
2019-03-09T07:55:39.054Z,99620.87
2019-03-09T07:58:40.984Z,99614.80
2019-03-09T08:01:42.940Z,99601.92
2019-03-09T08:04:44.865Z,99600.11
2019-03-09T08:07:47.478Z,99586.09
2019-03-09T08:10:49.393Z,99575.64
2019-03-09T08:13:51.393Z,99578.91
2019-03-09T08:16:53.278Z,99570.92
2019-03-09T08:19:55.199Z,99561.97
2019-03-09T08:22:57.116Z,99558.48
2019-03-09T08:25:59.051Z,99555.19
2019-03-09T08:29:00.912Z,99532.39
2019-03-09T08:32:02.857Z,99532.05
2019-03-09T08:35:06.666Z,99526.92
2019-03-09T08:38:08.723Z,99516.89
2019-03-09T08:41:10.617Z,99521.23
2019-03-09T08:44:12.644Z,99517.30
2019-03-09T08:47:15.984Z,99529.33
2019-03-09T08:50:19.787Z,99516.56
2019-03-09T08:53:21.708Z,99500.63
2019-03-09T08:56:23.622Z,99496.95
2019-03-09T08:59:25.576Z,99497.80
2019-03-09T09:02:27.486Z,99498.58
2019-03-09T09:05:29.427Z,99489.91
2019-03-09T09:08:31.346Z,99479.92
2019-03-09T09:11:33.261Z,99489.20
2019-03-09T09:14:35.279Z,99495.31
2019-03-09T09:17:37.379Z,99478.03
2019-03-09T09:20:39.306Z,99497.22
2019-03-09T09:23:41.255Z,99498.84
2019-03-09T09:26:43.193Z,99495.74
2019-03-09T09:29:45.176Z,99491.28
2019-03-09T09:32:47.047Z,99480.51
2019-03-09T09:35:49.003Z,99485.56
2019-03-09T09:38:51.060Z,99488.63
2019-03-09T09:41:53.027Z,99476.30
2019-03-09T09:44:54.987Z,99479.28
2019-03-09T09:47:57.018Z,99462.81
2019-03-09T09:50:58.899Z,99473.98
2019-03-09T09:54:00.877Z,99463.81
2019-03-09T09:57:02.800Z,99473.36
2019-03-09T10:00:11.237Z,99460.20
2019-03-09T10:03:13.109Z,99469.80
2019-03-09T10:06:15.153Z,99458.89
2019-03-09T10:09:18.018Z,99470.16
2019-03-09T10:12:19.953Z,99470.25
2019-03-09T10:15:29.274Z,99485.70
2019-03-09T10:18:31.279Z,99476.97
2019-03-09T10:21:33.222Z,99475.92
2019-03-09T10:24:35.136Z,99473.50
2019-03-09T10:27:37.038Z,99474.87
2019-03-09T10:30:39.010Z,99460.89
2019-03-09T10:33:40.947Z,99458.69
2019-03-09T10:36:42.954Z,99463.59
2019-03-09T10:39:45.040Z,99456.73
2019-03-09T10:42:47.086Z,99456.19
2019-03-09T10:45:49.160Z,99461.11
2019-03-09T10:48:51.062Z,99470.96
2019-03-09T10:51:53.953Z,99466.00
2019-03-09T10:54:55.866Z,99471.13
2019-03-09T10:57:57.852Z,99468.32
2019-03-09T11:00:59.748Z,99471.84
2019-03-09T11:04:01.725Z,99472.89
2019-03-09T11:07:03.719Z,99469.58
2019-03-09T11:10:06.475Z,99471.99
2019-03-09T11:13:08.393Z,99456.28
2019-03-09T11:16:10.745Z,99465.35
2019-03-09T11:19:13.254Z,99476.05
2019-03-09T11:22:15.129Z,99471.05
2019-03-09T11:25:17.031Z,99459.17
2019-03-09T11:28:18.955Z,99451.69
2019-03-09T11:31:20.915Z,99434.92
2019-03-09T11:34:22.756Z,99437.05
2019-03-09T11:37:24.726Z,99448.00
2019-03-09T11:40:26.964Z,99424.71
2019-03-09T11:43:28.882Z,99436.16
2019-03-09T11:46:30.890Z,99447.03
2019-03-09T11:49:32.771Z,99438.51
2019-03-09T11:52:34.684Z,99437.69
2019-03-09T11:55:36.604Z,99441.44
2019-03-09T11:58:38.513Z,99442.38
2019-03-09T12:01:40.415Z,99438.33
2019-03-09T12:04:46.631Z,99420.23
2019-03-09T12:07:47.114Z,99418.89
2019-03-09T12:10:48.979Z,99408.55
2019-03-09T12:13:51.039Z,99389.19
2019-03-09T12:16:53.037Z,99401.34
2019-03-09T12:19:55.225Z,99398.37
2019-03-09T12:23:01.654Z,99402.77
2019-03-09T12:26:03.879Z,99397.63
2019-03-09T12:29:05.756Z,99405.75
2019-03-09T12:32:07.689Z,99408.47
2019-03-09T12:35:09.659Z,99402.67
2019-03-09T12:38:11.625Z,99408.98
2019-03-09T12:41:13.586Z,99399.79
2019-03-09T12:44:15.652Z,99408.66
2019-03-09T12:47:19.009Z,99403.25
2019-03-09T12:50:22.243Z,99409.27
2019-03-09T12:53:24.154Z,99413.78
2019-03-09T12:56:26.040Z,99408.99
2019-03-09T12:59:27.970Z,99402.55
2019-03-09T13:02:29.860Z,99393.19
2019-03-09T13:05:31.757Z,99390.36
2019-03-09T13:08:33.634Z,99395.41
2019-03-09T13:11:35.575Z,99395.49
2019-03-09T13:14:37.453Z,99394.25
2019-03-09T13:17:39.486Z,99388.88
2019-03-09T13:20:41.458Z,99392.52
2019-03-09T13:23:43.349Z,99377.88
2019-03-09T13:26:45.312Z,99364.95
2019-03-09T13:29:47.193Z,99364.46
2019-03-09T13:32:49.260Z,99380.38
2019-03-09T13:35:51.195Z,99359.10
2019-03-09T13:38:53.141Z,99352.97
2019-03-09T13:41:55.165Z,99360.58
2019-03-09T13:44:57.042Z,99348.78
2019-03-09T13:47:59.162Z,99371.91
2019-03-09T13:51:01.094Z,99368.61
2019-03-09T13:54:03.028Z,99382.82
2019-03-09T13:57:05.033Z,99377.31
2019-03-09T14:00:12.831Z,99368.23
2019-03-09T14:03:14.803Z,99388.33
2019-03-09T14:06:16.778Z,99371.05
2019-03-09T14:09:18.731Z,99367.05
2019-03-09T14:12:20.640Z,99361.16
2019-03-09T14:15:22.650Z,99345.59
2019-03-09T14:18:24.719Z,99346.13
2019-03-09T14:21:26.758Z,99345.00
2019-03-09T14:24:28.709Z,99342.47
2019-03-09T14:27:30.742Z,99323.08
2019-03-09T14:30:34.382Z,99323.08
2019-03-09T14:33:36.250Z,99318.44
2019-03-09T14:36:38.244Z,99298.29
2019-03-09T14:39:40.146Z,99306.92
2019-03-09T14:42:44.057Z,99314.84
2019-03-09T14:45:46.057Z,99302.30
2019-03-09T14:48:48.156Z,99301.05
2019-03-09T14:51:50.157Z,99294.67
2019-03-09T14:54:52.227Z,99284.45
2019-03-09T14:57:54.129Z,99277.63
2019-03-09T15:00:56.035Z,99273.24
2019-03-09T15:03:58.012Z,99267.61
2019-03-09T15:07:07.699Z,99273.17
2019-03-09T15:10:10.986Z,99262.02
2019-03-09T15:13:12.999Z,99253.05
2019-03-09T15:16:15.039Z,99261.52
2019-03-09T15:19:17.730Z,99270.77
2019-03-09T15:22:19.786Z,99261.45
2019-03-09T15:25:21.780Z,99258.99
2019-03-09T15:28:24.346Z,99262.16
2019-03-09T15:31:26.263Z,99274.11
2019-03-09T15:34:28.247Z,99282.50
2019-03-09T15:37:30.118Z,99298.20
2019-03-09T15:40:32.189Z,99320.96
2019-03-09T15:43:34.296Z,99291.76
2019-03-09T15:46:36.263Z,99306.81
2019-03-09T15:49:38.392Z,99325.08
2019-03-09T15:52:40.389Z,99321.80
2019-03-09T15:55:45.135Z,99299.70
2019-03-09T15:58:47.097Z,99294.68
2019-03-09T16:01:49.006Z,99273.97
2019-03-09T16:04:50.936Z,99257.55
2019-03-09T16:07:53.001Z,99247.01
2019-03-09T16:10:54.936Z,99250.33
2019-03-09T16:13:56.876Z,99252.23
2019-03-09T16:17:02.420Z,99260.98
2019-03-09T16:20:09.139Z,99270.46
2019-03-09T16:23:11.238Z,99271.45
2019-03-09T16:26:13.192Z,99279.05
2019-03-09T16:29:15.851Z,99270.18
2019-03-09T16:32:18.535Z,99267.92
2019-03-09T16:35:20.551Z,99262.61
2019-03-09T16:38:23.121Z,99266.16
2019-03-09T16:41:26.876Z,99270.66
2019-03-09T16:44:31.191Z,99269.27
2019-03-09T16:47:33.092Z,99283.45
2019-03-09T16:50:35.070Z,99316.09
2019-03-09T16:53:37.005Z,99315.04
2019-03-09T16:56:38.960Z,99347.36
2019-03-09T16:59:40.949Z,99333.69
2019-03-09T17:02:42.972Z,99306.77
2019-03-09T17:05:46.149Z,99296.44
2019-03-09T17:08:48.093Z,99277.86
2019-03-09T17:11:52.397Z,99251.58
2019-03-09T17:14:54.262Z,99237.84
2019-03-09T17:17:58.041Z,99239.36
2019-03-09T17:21:00.135Z,99241.89
2019-03-09T17:24:02.083Z,99225.59
2019-03-09T17:27:03.997Z,99212.20
2019-03-09T17:30:17.485Z,99233.59
2019-03-09T17:33:19.455Z,99245.97
2019-03-09T17:36:21.345Z,99210.72
2019-03-09T17:39:23.606Z,99174.38
2019-03-09T17:42:25.466Z,99188.58
2019-03-09T17:45:27.464Z,99117.76
2019-03-09T17:48:29.415Z,99138.93
2019-03-09T17:51:33.975Z,99145.58
2019-03-09T17:54:35.879Z,99168.22
2019-03-09T17:57:37.870Z,99172.33
2019-03-09T18:00:45.075Z,99178.06
2019-03-09T18:03:49.577Z,99183.63
2019-03-09T18:06:51.495Z,99185.06
2019-03-09T18:09:53.501Z,99182.11
2019-03-09T18:12:55.459Z,99184.05
2019-03-09T18:15:57.790Z,99187.35
2019-03-09T18:19:00.994Z,99185.44
2019-03-09T18:22:03.806Z,99180.28
2019-03-09T18:25:06.297Z,99184.95
2019-03-09T18:28:08.894Z,99171.27
2019-03-09T18:31:10.788Z,99171.53
2019-03-09T18:34:12.757Z,99161.72
2019-03-09T18:37:16.016Z,99156.83
2019-03-09T18:40:20.912Z,99157.96
2019-03-09T18:43:22.768Z,99157.73
2019-03-09T18:46:25.946Z,99158.28
2019-03-09T18:49:27.852Z,99150.09
2019-03-09T18:52:29.851Z,99141.36
2019-03-09T18:55:31.771Z,99137.00
2019-03-09T18:58:33.762Z,99130.17
2019-03-09T19:01:39.121Z,99118.95
2019-03-09T19:04:41.046Z,99115.16
2019-03-09T19:07:42.999Z,99096.59
2019-03-09T19:10:45.422Z,99092.74
2019-03-09T19:13:47.759Z,99091.36
2019-03-09T19:16:49.653Z,99078.81
2019-03-09T19:19:51.605Z,99066.52
2019-03-09T19:22:54.260Z,99056.67
2019-03-09T19:25:57.657Z,99056.96
2019-03-09T19:28:59.566Z,99045.75
2019-03-09T19:32:01.669Z,99028.28
2019-03-09T19:35:07.007Z,99025.80
2019-03-09T19:38:08.942Z,99009.66
2019-03-09T19:41:11.800Z,99008.25
2019-03-09T19:44:13.728Z,98999.47
2019-03-09T19:47:15.727Z,98996.94
2019-03-09T19:50:18.643Z,98997.14
2019-03-09T19:53:22.390Z,98999.27
2019-03-09T19:56:24.291Z,98980.86
2019-03-09T19:59:28.751Z,98970.92
2019-03-09T20:02:33.328Z,98968.64
2019-03-09T20:05:35.238Z,98963.94
2019-03-09T20:08:42.459Z,98959.52
2019-03-09T20:11:46.275Z,98955.05
2019-03-09T20:14:51.251Z,98936.69
2019-03-09T20:17:53.456Z,98956.37
2019-03-09T20:20:56.602Z,98949.70
2019-03-09T20:23:58.612Z,98932.37
2019-03-09T20:27:11.307Z,98918.91
2019-03-09T20:30:15.833Z,98904.08
2019-03-09T20:33:19.888Z,98911.98
2019-03-09T20:36:22.104Z,98908.15
2019-03-09T20:39:24.332Z,98903.73
2019-03-09T20:42:28.286Z,98884.02
2019-03-09T20:45:31.494Z,98891.13
2019-03-09T20:48:35.852Z,98878.29
2019-03-09T20:51:37.770Z,98872.31
2019-03-09T20:54:39.999Z,98865.23
2019-03-09T20:57:42.312Z,98873.47
2019-03-09T21:00:45.337Z,98878.94
2019-03-09T21:03:48.911Z,98867.65
2019-03-09T21:06:51.115Z,98882.90
2019-03-09T21:09:53.088Z,98898.30
2019-03-09T21:13:07.680Z,98923.88
2019-03-09T21:16:11.439Z,98933.93
2019-03-09T21:19:13.739Z,98960.88
2019-03-09T21:22:16.390Z,98941.84
2019-03-09T21:25:18.425Z,98928.52
2019-03-09T21:28:21.477Z,98943.88
2019-03-09T21:31:23.346Z,98950.95
2019-03-09T21:34:25.315Z,98959.16
2019-03-09T21:37:27.243Z,98963.53
2019-03-09T21:40:29.651Z,98931.30
2019-03-09T21:43:33.353Z,98920.69
2019-03-09T21:46:36.983Z,98926.47
2019-03-09T21:49:39.024Z,98928.66
2019-03-09T21:52:42.188Z,98919.67
2019-03-09T21:55:44.161Z,98931.98
2019-03-09T21:58:46.035Z,98942.86
2019-03-09T22:01:47.970Z,98942.28
2019-03-09T22:04:50.080Z,98955.38
2019-03-09T22:07:52.039Z,98964.14
2019-03-09T22:10:53.954Z,98955.43
2019-03-09T22:13:55.927Z,98959.00
2019-03-09T22:16:57.904Z,98963.92
2019-03-09T22:19:59.795Z,98969.94
2019-03-09T22:23:02.147Z,98949.97
2019-03-09T22:26:04.094Z,98957.91
2019-03-09T22:29:06.041Z,98964.20
2019-03-09T22:32:07.995Z,98975.17
2019-03-09T22:35:11.717Z,99002.51
2019-03-09T22:38:15.119Z,98998.12
2019-03-09T22:41:17.439Z,99026.53
2019-03-09T22:44:19.322Z,99028.16
2019-03-09T22:47:23.360Z,99028.69
2019-03-09T22:50:25.815Z,99035.77
2019-03-09T22:53:27.770Z,99060.34
2019-03-09T22:56:29.750Z,99065.22
2019-03-09T22:59:31.678Z,99080.50
2019-03-09T23:02:33.625Z,99077.50
2019-03-09T23:05:35.570Z,99060.84
2019-03-09T23:08:37.796Z,99084.32
2019-03-09T23:11:39.666Z,99108.59
2019-03-09T23:14:41.559Z,99108.36
2019-03-09T23:17:44.793Z,99095.81
2019-03-09T23:20:46.748Z,99121.22
2019-03-09T23:23:48.961Z,99140.08
2019-03-09T23:26:50.936Z,99160.83
2019-03-09T23:29:52.851Z,99169.83
2019-03-09T23:32:54.873Z,99164.97
2019-03-09T23:35:56.732Z,99196.62
2019-03-09T23:38:58.698Z,99173.41
2019-03-09T23:42:00.654Z,99207.55
2019-03-09T23:45:03.424Z,99204.58
2019-03-09T23:48:05.301Z,99181.92
2019-03-09T23:51:07.310Z,99230.00
2019-03-09T23:54:09.186Z,99247.74
2019-03-09T23:57:11.158Z,99257.03
